Time;durP1;ratioP1;P1;durP2;ratioP2;P2;SDS_P1;SDS_P2;PMS_P1;PMS_P2;Temp;Humidity;BMP_temperature;BMP_pressure;BME280_temperature;BME280_humidity;BME280_pressure;Samples;Min_cycle;Max_cycle;Signal;HPM_P1;HPM_P2
2022/11/30 00:00:30;;;;;;;;;;;;;;;14.23;75.12;101972.69;1261254;23;610;-72
2022/11/30 00:01:20;;;;;;;;;;;;;;;14.22;74.82;101970.94;1261344;23;622;-72
2022/11/30 00:02:10;;;;;;;;;;;;;;;14.20;74.89;101980.91;1261203;23;698;-71
2022/11/30 00:03:01;;;;;;;;;;;;;;;14.20;75.25;101978.22;1261283;23;641;-70
2022/11/30 00:03:51;;;;;;;;;;;;;;;14.23;75.01;101978.03;1261307;23;634;-71
2022/11/30 00:04:42;;;;;;;;;;;;;;;14.24;74.86;101979.75;1262224;23;737;-71
2022/11/30 00:05:32;;;;;;;;;;;;;;;14.21;74.50;101977.28;1261217;23;662;-71
2022/11/30 00:06:22;;;;;;;;;;;;;;;14.23;74.94;101978.03;1262117;23;645;-71
2022/11/30 00:07:13;;;;;;;;;;;;;;;14.23;74.97;101977.19;1261177;23;610;-71
2022/11/30 00:08:03;;;;;;;;;;;;;;;14.24;74.72;101982.44;1261246;23;685;-71
2022/11/30 00:08:54;;;;;;;;;;;;;;;14.21;75.22;101982.63;1262194;23;681;-71
2022/11/30 00:09:44;;;;;;;;;;;;;;;14.22;75.31;101976.31;1261383;23;658;-71
2022/11/30 00:10:35;;;;;;;;;;;;;;;14.22;75.35;101981.69;1261337;23;664;-71
2022/11/30 00:11:25;;;;;;;;;;;;;;;14.23;75.09;101978.03;1261210;23;606;-71
2022/11/30 00:12:15;;;;;;;;;;;;;;;14.21;75.56;101979.94;1261359;23;634;-71
2022/11/30 00:13:06;;;;;;;;;;;;;;;14.20;75.05;101980.03;1261315;23;609;-71
2022/11/30 00:13:56;;;;;;;;;;;;;;;14.21;75.43;101977.28;1261162;23;700;-71
2022/11/30 00:14:47;;;;;;;;;;;;;;;14.23;75.32;101982.53;1262231;23;634;-72
2022/11/30 00:15:38;;;;;;;;;;;;;;;14.22;75.13;101976.31;1262184;23;656;-72
2022/11/30 00:16:28;;;;;;;;;;;;;;;14.22;74.61;101976.31;1261323;23;1897;-72
2022/11/30 00:17:18;;;;;;;;;;;;;;;14.24;75.00;101977.09;1262145;23;660;-71
2022/11/30 00:18:09;;;;;;;;;;;;;;;14.24;74.70;101985.13;1261270;23;665;-72
2022/11/30 00:18:59;;;;;;;;;;;;;;;14.24;74.79;101982.44;1261204;23;701;-72
2022/11/30 00:19:50;;;;;;;;;;;;;;;14.27;75.04;101980.53;1261224;23;712;-72
2022/11/30 00:20:40;;;;;;;;;;;;;;;14.23;75.19;101982.53;1261324;23;590;-72
2022/11/30 00:21:31;;;;;;;;;;;;;;;14.21;74.74;101979.94;1256542;23;688;-72
2022/11/30 00:22:21;;;;;;;;;;;;;;;14.19;74.96;101976.50;1254982;23;611;-72
2022/11/30 00:23:11;;;;;;;;;;;;;;;14.22;74.73;101978.13;1261006;23;680;-72
2022/11/30 00:24:02;;;;;;;;;;;;;;;14.22;75.08;101980.81;1262255;23;747;-72
2022/11/30 00:24:52;;;;;;;;;;;;;;;14.22;75.19;101984.34;1260624;23;629;-72
2022/11/30 00:25:43;;;;;;;;;;;;;;;14.23;75.23;101979.84;1261094;23;628;-72
2022/11/30 00:26:33;;;;;;;;;;;;;;;14.22;74.69;101983.50;1262060;23;653;-72
2022/11/30 00:27:24;;;;;;;;;;;;;;;14.22;74.58;101979.00;1261200;23;646;-72
2022/11/30 00:28:14;;;;;;;;;;;;;;;14.22;74.77;101975.44;1261276;23;630;-72
2022/11/30 00:29:04;;;;;;;;;;;;;;;14.22;75.31;101984.34;1262115;23;657;-72
2022/11/30 00:29:55;;;;;;;;;;;;;;;14.22;75.26;101981.69;1261318;23;665;-72
2022/11/30 00:30:45;;;;;;;;;;;;;;;14.22;75.30;101975.44;1261224;23;630;-71
2022/11/30 00:31:36;;;;;;;;;;;;;;;14.23;75.01;101972.69;1261114;23;669;-71
2022/11/30 00:32:26;;;;;;;;;;;;;;;14.23;74.98;101975.34;1261298;23;590;-71
2022/11/30 00:33:16;;;;;;;;;;;;;;;14.23;74.79;101975.34;1262125;23;665;-71
2022/11/30 00:34:07;;;;;;;;;;;;;;;14.24;75.05;101979.75;1261258;23;665;-71
2022/11/30 00:34:57;;;;;;;;;;;;;;;14.23;75.12;101983.41;1261078;23;641;-72
2022/11/30 00:35:48;;;;;;;;;;;;;;;14.23;75.13;101978.03;1262092;23;586;-71
2022/11/30 00:36:38;;;;;;;;;;;;;;;14.25;75.02;101981.50;1262068;23;646;-72
2022/11/30 00:37:29;;;;;;;;;;;;;;;14.23;74.73;101986.09;1261120;23;673;-71
2022/11/30 00:38:19;;;;;;;;;;;;;;;14.23;74.77;101983.41;1261319;23;633;-72
2022/11/30 00:39:09;;;;;;;;;;;;;;;14.25;74.86;101986.84;1260655;23;673;-71
2022/11/30 00:40:00;;;;;;;;;;;;;;;14.23;75.07;101980.72;1261159;23;594;-72
2022/11/30 00:40:50;;;;;;;;;;;;;;;14.22;75.08;101979.00;1261283;23;610;-71
2022/11/30 00:41:41;;;;;;;;;;;;;;;14.24;75.17;101977.09;1261322;23;657;-71
2022/11/30 00:42:31;;;;;;;;;;;;;;;14.23;74.97;101985.22;1261281;23;626;-71
2022/11/30 00:43:21;;;;;;;;;;;;;;;14.24;74.73;101981.59;1261100;23;641;-71
2022/11/30 00:44:12;;;;;;;;;;;;;;;14.22;74.86;101976.31;1261226;23;622;-72
2022/11/30 00:45:02;;;;;;;;;;;;;;;14.20;75.27;101975.53;1261212;23;621;-71
2022/11/30 00:45:53;;;;;;;;;;;;;;;14.20;74.90;101980.91;1261406;23;618;-72
2022/11/30 00:46:43;;;;;;;;;;;;;;;14.17;75.31;101972.19;1261197;23;617;-71
2022/11/30 00:47:34;;;;;;;;;;;;;;;14.19;74.72;101978.31;1261227;23;693;-71
2022/11/30 00:48:24;;;;;;;;;;;;;;;14.21;75.20;101979.09;1261264;23;677;-71
2022/11/30 00:49:14;;;;;;;;;;;;;;;14.23;75.14;101979.84;1261215;23;776;-72
2022/11/30 00:50:05;;;;;;;;;;;;;;;14.22;74.72;101975.44;1261139;23;666;-71
2022/11/30 00:50:55;;;;;;;;;;;;;;;14.21;75.24;101979.94;1261186;23;658;-71
2022/11/30 00:51:46;;;;;;;;;;;;;;;14.23;75.05;101982.53;1261109;23;681;-71
2022/11/30 00:52:36;;;;;;;;;;;;;;;14.23;75.11;101979.84;1261246;23;654;-72
2022/11/30 00:53:27;;;;;;;;;;;;;;;14.21;74.67;101971.91;1261190;23;673;-72
2022/11/30 00:54:17;;;;;;;;;;;;;;;14.20;74.82;101978.22;1261297;23;721;-71
2022/11/30 00:55:07;;;;;;;;;;;;;;;14.21;75.14;101974.59;1261961;23;626;-72
2022/11/30 00:55:58;;;;;;;;;;;;;;;14.21;74.81;101977.28;1261279;23;653;-71
2022/11/30 00:56:48;;;;;;;;;;;;;;;14.21;75.26;101981.78;1262045;23;633;-71
2022/11/30 00:57:39;;;;;;;;;;;;;;;14.20;74.89;101975.53;1261386;23;650;-72
2022/11/30 00:58:29;;;;;;;;;;;;;;;14.21;75.15;101979.94;1261138;23;638;-71
2022/11/30 00:59:19;;;;;;;;;;;;;;;14.22;75.05;101980.81;1261425;23;696;-72
2022/11/30 01:00:10;;;;;;;;;;;;;;;14.20;75.11;101980.03;1261200;23;618;-71
2022/11/30 01:01:00;;;;;;;;;;;;;;;14.20;75.15;101988.94;1261987;23;661;-72
2022/11/30 01:01:51;;;;;;;;;;;;;;;14.18;75.24;101980.13;1261192;23;634;-72
2022/11/30 01:02:41;;;;;;;;;;;;;;;14.21;74.79;101982.63;1262067;23;673;-71
2022/11/30 01:03:32;;;;;;;;;;;;;;;14.20;74.98;101988.09;1261215;23;670;-71
2022/11/30 01:04:22;;;;;;;;;;;;;;;14.21;75.35;101982.63;1261278;23;640;-72
2022/11/30 01:05:13;;;;;;;;;;;;;;;14.20;74.97;101980.03;1261142;23;610;-72
2022/11/30 01:06:03;;;;;;;;;;;;;;;14.19;75.17;101981.88;1261205;23;709;-72
2022/11/30 01:06:54;;;;;;;;;;;;;;;14.18;75.31;101985.50;1256279;23;680;-72
2022/11/30 01:07:44;;;;;;;;;;;;;;;14.16;75.32;101978.50;1254923;23;676;-72
2022/11/30 01:08:35;;;;;;;;;;;;;;;14.18;74.86;101992.69;1260850;23;670;-72
2022/11/30 01:09:25;;;;;;;;;;;;;;;14.17;75.12;101981.09;1261290;23;654;-72
2022/11/30 01:10:15;;;;;;;;;;;;;;;14.17;74.96;101986.44;1261296;23;692;-72
2022/11/30 01:11:06;;;;;;;;;;;;;;;14.18;74.80;101988.19;1261204;23;672;-72
2022/11/30 01:11:56;;;;;;;;;;;;;;;14.21;74.89;101992.50;1262132;23;626;-72
2022/11/30 01:12:47;;;;;;;;;;;;;;;14.21;75.50;102001.41;1261181;23;669;-72
2022/11/30 01:13:37;;;;;;;;;;;;;;;14.21;75.27;101998.72;1261204;23;665;-72
2022/11/30 01:14:28;;;;;;;;;;;;;;;14.21;75.11;101996.03;1261292;23;642;-72
2022/11/30 01:15:18;;;;;;;;;;;;;;;14.22;74.56;101995.09;1261132;23;721;-72
2022/11/30 01:16:08;;;;;;;;;;;;;;;14.21;75.33;101996.03;1261077;23;1932;-72
2022/11/30 01:16:59;;;;;;;;;;;;;;;14.21;75.25;102000.53;1262294;23;614;-72
2022/11/30 01:17:49;;;;;;;;;;;;;;;14.20;74.74;101996.13;1256597;23;697;-72
2022/11/30 01:18:40;;;;;;;;;;;;;;;14.19;75.06;101997.94;1254792;23;637;-72
2022/11/30 01:19:30;;;;;;;;;;;;;;;14.18;74.64;101996.22;1261041;23;653;-71
2022/11/30 01:20:21;;;;;;;;;;;;;;;14.19;74.77;101995.28;1261229;23;685;-71
2022/11/30 01:21:12;;;;;;;;;;;;;;;14.18;75.16;102001.59;1261144;23;677;-71
2022/11/30 01:22:02;;;;;;;;;;;;;;;14.18;75.24;101998.91;1261146;23;689;-71
2022/11/30 01:22:53;;;;;;;;;;;;;;;14.19;75.54;101997.09;1260658;23;610;-72
2022/11/30 01:23:43;;;;;;;;;;;;;;;14.20;75.01;102005.03;1261180;23;618;-72
2022/11/30 01:24:34;;;;;;;;;;;;;;;14.18;74.96;102001.59;1261911;23;625;-71
2022/11/30 01:25:24;;;;;;;;;;;;;;;14.19;74.71;101997.09;1261126;23;653;-71
2022/11/30 01:26:15;;;;;;;;;;;;;;;14.20;74.75;101999.69;1262045;23;908;-71
2022/11/30 01:27:05;;;;;;;;;;;;;;;14.21;75.13;101995.19;1261084;23;721;-72
2022/11/30 01:27:55;;;;;;;;;;;;;;;14.20;75.17;101999.69;1261199;23;669;-72
2022/11/30 01:28:46;;;;;;;;;;;;;;;14.20;75.09;101998.81;1260966;23;650;-71
2022/11/30 01:29:36;;;;;;;;;;;;;;;14.19;74.93;102002.44;1261240;23;626;-71
2022/11/30 01:30:27;;;;;;;;;;;;;;;14.19;74.84;101997.94;1261901;23;760;-71
2022/11/30 01:31:17;;;;;;;;;;;;;;;14.20;74.60;102004.16;1261199;23;595;-71
2022/11/30 01:32:08;;;;;;;;;;;;;;;14.19;74.86;101992.59;1261178;23;653;-71
2022/11/30 01:32:58;;;;;;;;;;;;;;;14.18;74.73;101996.22;1261289;23;626;-71
2022/11/30 01:33:49;;;;;;;;;;;;;;;14.19;75.12;101997.94;1261117;23;665;-71
2022/11/30 01:34:39;;;;;;;;;;;;;;;14.20;75.11;101994.31;1261329;23;614;-72
2022/11/30 01:35:29;;;;;;;;;;;;;;;14.21;75.20;102006.75;1261283;23;689;-71
2022/11/30 01:36:20;;;;;;;;;;;;;;;14.19;74.66;101997.94;1261146;23;1920;-71
2022/11/30 01:37:10;;;;;;;;;;;;;;;14.18;75.23;101996.22;1261396;23;653;-71
2022/11/30 01:38:01;;;;;;;;;;;;;;;14.18;75.31;102001.59;1261154;23;642;-71
2022/11/30 01:38:51;;;;;;;;;;;;;;;14.18;75.04;102004.25;1261887;23;625;-71
2022/11/30 01:39:42;;;;;;;;;;;;;;;14.18;74.86;102004.25;1261271;23;654;-72
2022/11/30 01:40:32;;;;;;;;;;;;;;;14.15;74.97;101996.41;1261115;23;646;-72
2022/11/30 01:41:22;;;;;;;;;;;;;;;14.18;74.82;101998.03;1261235;23;712;-72
2022/11/30 01:42:13;;;;;;;;;;;;;;;14.18;74.62;101998.91;1261128;23;747;-72
2022/11/30 01:43:03;;;;;;;;;;;;;;;14.19;75.25;102003.31;1261090;23;634;-71
2022/11/30 01:43:54;;;;;;;;;;;;;;;14.19;75.11;101997.94;1261982;23;822;-72
2022/11/30 01:44:44;;;;;;;;;;;;;;;14.18;74.94;102004.25;1261198;23;689;-72
2022/11/30 01:45:35;;;;;;;;;;;;;;;14.18;75.23;102004.25;1261213;23;634;-72
2022/11/30 01:46:25;;;;;;;;;;;;;;;14.17;74.71;101993.63;1261103;23;607;-72
2022/11/30 01:47:15;;;;;;;;;;;;;;;14.17;75.18;101994.50;1261554;23;565;-72
2022/11/30 01:48:06;;;;;;;;;;;;;;;14.17;75.33;101997.19;1261258;23;1376;-72
2022/11/30 01:48:56;;;;;;;;;;;;;;;14.19;75.07;101999.75;1261443;23;599;-72
2022/11/30 01:49:47;;;;;;;;;;;;;;;14.17;75.00;101997.19;1261502;23;642;-72
2022/11/30 01:50:37;;;;;;;;;;;;;;;14.17;75.10;102002.53;1256819;23;618;-72
2022/11/30 01:51:28;;;;;;;;;;;;;;;14.17;75.27;101991.81;1254880;23;594;-72
2022/11/30 01:52:18;;;;;;;;;;;;;;;14.16;75.13;101989.22;1261416;23;606;-72
2022/11/30 01:53:11;;;;;;;;;;;;;;;14.15;74.75;101999.09;1262439;23;693;-72
2022/11/30 01:54:01;;;;;;;;;;;;;;;14.17;75.38;101999.00;1261496;23;661;-72
2022/11/30 01:54:52;;;;;;;;;;;;;;;14.14;75.50;101993.84;1261523;23;634;-72
2022/11/30 01:55:42;;;;;;;;;;;;;;;14.14;75.52;101997.38;1261572;23;716;-72
2022/11/30 01:56:32;;;;;;;;;;;;;;;14.17;75.42;101999.00;1261286;23;1909;-72
2022/11/30 01:57:23;;;;;;;;;;;;;;;14.18;74.59;102000.72;1261469;23;536;-72
2022/11/30 01:58:13;;;;;;;;;;;;;;;14.15;75.30;101990.22;1262440;23;606;-72
2022/11/30 01:59:04;;;;;;;;;;;;;;;14.17;74.87;101999.00;1262247;23;572;-72
2022/11/30 01:59:54;;;;;;;;;;;;;;;14.13;75.53;101992.97;1262452;23;598;-72
2022/11/30 02:00:45;;;;;;;;;;;;;;;14.12;75.66;101993.94;1261434;23;786;-71
2022/11/30 02:01:35;;;;;;;;;;;;;;;14.14;75.15;101989.34;1262412;23;665;-71
2022/11/30 02:02:26;;;;;;;;;;;;;;;14.13;75.27;101995.66;1256787;23;660;-71
2022/11/30 02:03:17;;;;;;;;;;;;;;;14.15;74.82;101998.25;1255164;23;657;-73
2022/11/30 02:04:07;;;;;;;;;;;;;;;14.13;75.00;101992.97;1261624;23;621;-73
2022/11/30 02:04:58;;;;;;;;;;;;;;;14.15;75.19;101999.09;1256835;23;680;-73
2022/11/30 02:05:48;;;;;;;;;;;;;;;14.15;75.73;101991.03;1255218;23;747;-73
2022/11/30 02:06:38;;;;;;;;;;;;;;;14.15;75.41;102001.75;1261289;23;602;-73
2022/11/30 02:07:29;;;;;;;;;;;;;;;14.15;74.87;101999.09;1261447;23;567;-73
2022/11/30 02:08:19;;;;;;;;;;;;;;;14.15;75.68;101998.25;1261556;23;634;-73
2022/11/30 02:09:10;;;;;;;;;;;;;;;14.13;75.55;102000.16;1262414;23;649;-71
2022/11/30 02:10:00;;;;;;;;;;;;;;;14.11;75.76;102002.94;1261554;23;641;-71
2022/11/30 02:10:50;;;;;;;;;;;;;;;14.11;75.19;102000.25;1262292;23;1148;-72
2022/11/30 02:11:41;;;;;;;;;;;;;;;14.10;76.00;101995.84;1262220;23;712;-71
2022/11/30 02:12:31;;;;;;;;;;;;;;;14.11;75.03;101994.91;1261538;23;646;-72
2022/11/30 02:13:22;;;;;;;;;;;;;;;14.13;75.05;102000.16;1262209;23;645;-72
2022/11/30 02:14:12;;;;;;;;;;;;;;;14.13;75.20;101997.47;1261444;23;588;-71
2022/11/30 02:15:03;;;;;;;;;;;;;;;14.13;75.72;101998.34;1261440;23;774;-71
2022/11/30 02:15:53;;;;;;;;;;;;;;;14.11;75.63;101997.56;1261442;23;723;-71
2022/11/30 02:16:43;;;;;;;;;;;;;;;14.12;75.13;101996.63;1261520;23;645;-70
2022/11/30 02:17:34;;;;;;;;;;;;;;;14.13;75.20;101992.13;1261401;23;689;-70
2022/11/30 02:18:24;;;;;;;;;;;;;;;14.10;75.49;101990.50;1261431;23;657;-70
2022/11/30 02:19:15;;;;;;;;;;;;;;;14.11;75.37;101988.66;1261304;23;661;-70
2022/11/30 02:20:05;;;;;;;;;;;;;;;14.12;75.09;101995.75;1261188;23;662;-71
2022/11/30 02:20:55;;;;;;;;;;;;;;;14.13;75.62;101989.44;1260831;23;614;-72
2022/11/30 02:21:46;;;;;;;;;;;;;;;14.13;75.52;101992.13;1261418;23;662;-71
2022/11/30 02:22:36;;;;;;;;;;;;;;;14.13;75.59;101997.47;1262313;23;609;-71
2022/11/30 02:23:27;;;;;;;;;;;;;;;14.12;75.46;101985.91;1256636;23;629;-71
2022/11/30 02:24:17;;;;;;;;;;;;;;;14.14;75.30;101997.38;1255175;23;622;-72
2022/11/30 02:25:08;;;;;;;;;;;;;;;14.14;74.94;101984.00;1261183;23;669;-72
2022/11/30 02:25:58;;;;;;;;;;;;;;;14.16;75.43;101986.53;1261406;23;693;-71
2022/11/30 02:26:49;;;;;;;;;;;;;;;14.16;75.39;101994.59;1262203;23;708;-71
2022/11/30 02:27:39;;;;;;;;;;;;;;;14.17;74.84;101986.44;1261520;23;657;-71
2022/11/30 02:28:29;;;;;;;;;;;;;;;14.16;75.54;101990.09;1261459;23;662;-72
2022/11/30 02:29:20;;;;;;;;;;;;;;;14.17;74.87;101993.63;1261442;23;673;-71
2022/11/30 02:30:10;;;;;;;;;;;;;;;14.17;74.79;101993.63;1261610;23;673;-71
2022/11/30 02:31:01;;;;;;;;;;;;;;;14.18;75.18;101998.91;1261485;23;691;-71
2022/11/30 02:31:51;;;;;;;;;;;;;;;14.15;75.45;101992.91;1261422;23;602;-71
2022/11/30 02:32:42;;;;;;;;;;;;;;;14.16;74.65;101991.91;1261440;23;650;-71
2022/11/30 02:33:32;;;;;;;;;;;;;;;14.18;75.10;101990.84;1261349;23;661;-71
2022/11/30 02:34:22;;;;;;;;;;;;;;;14.15;74.83;101991.03;1262310;23;613;-71
2022/11/30 02:35:13;;;;;;;;;;;;;;;14.16;75.11;101989.22;1260783;23;642;-71
2022/11/30 02:36:03;;;;;;;;;;;;;;;14.15;75.36;101987.53;1261437;23;649;-71
2022/11/30 02:36:54;;;;;;;;;;;;;;;14.14;75.34;101989.34;1261384;23;649;-72
2022/11/30 02:37:44;;;;;;;;;;;;;;;14.14;75.24;101989.34;1261328;23;645;-71
2022/11/30 02:38:35;;;;;;;;;;;;;;;14.16;75.29;101991.91;1262314;23;645;-71
2022/11/30 02:39:25;;;;;;;;;;;;;;;14.16;75.24;101991.91;1262275;23;602;-71
2022/11/30 02:40:15;;;;;;;;;;;;;;;14.14;74.91;101991.16;1261502;23;662;-71
2022/11/30 02:41:06;;;;;;;;;;;;;;;14.12;75.32;101988.56;1261383;23;673;-71
2022/11/30 02:41:56;;;;;;;;;;;;;;;14.14;75.15;101988.50;1262277;23;653;-71
2022/11/30 02:42:47;;;;;;;;;;;;;;;14.13;75.62;101987.63;1261470;23;689;-71
2022/11/30 02:43:38;;;;;;;;;;;;;;;14.12;75.31;101993.06;1261311;23;666;-71
2022/11/30 02:44:28;;;;;;;;;;;;;;;14.13;75.24;101986.75;1261493;23;595;-71
2022/11/30 02:45:19;;;;;;;;;;;;;;;14.12;75.33;101991.25;1261531;23;650;-71
2022/11/30 02:46:09;;;;;;;;;;;;;;;14.11;74.96;101984.16;1261461;23;622;-71
2022/11/30 02:46:59;;;;;;;;;;;;;;;14.11;75.74;101983.31;1261416;23;534;-71
2022/11/30 02:47:50;;;;;;;;;;;;;;;14.11;75.42;101988.66;1256741;23;626;-71
2022/11/30 02:48:40;;;;;;;;;;;;;;;14.10;75.48;101992.31;1255187;23;638;-71
2022/11/30 02:49:31;;;;;;;;;;;;;;;14.12;75.09;101988.56;1260626;23;649;-71
2022/11/30 02:50:21;;;;;;;;;;;;;;;14.11;75.25;101989.53;1261376;23;626;-71
2022/11/30 02:51:11;;;;;;;;;;;;;;;14.12;74.80;101988.56;1261475;23;642;-71
2022/11/30 02:52:02;;;;;;;;;;;;;;;14.10;75.52;101995.84;1261491;23;674;-71
2022/11/30 02:52:52;;;;;;;;;;;;;;;14.09;75.56;101995.94;1261437;23;630;-71
2022/11/30 02:53:43;;;;;;;;;;;;;;;14.12;75.14;101991.25;1256619;23;633;-71
2022/11/30 02:54:33;;;;;;;;;;;;;;;14.09;75.57;101991.44;1255145;23;633;-71
2022/11/30 02:55:24;;;;;;;;;;;;;;;14.12;75.28;101999.31;1261098;23;677;-71
2022/11/30 02:56:14;;;;;;;;;;;;;;;14.14;75.19;101999.22;1262284;23;1909;-71
2022/11/30 02:57:05;;;;;;;;;;;;;;;14.10;75.17;101998.53;1261417;23;624;-71
2022/11/30 02:57:55;;;;;;;;;;;;;;;14.09;75.21;102001.31;1261355;23;590;-71
2022/11/30 02:58:45;;;;;;;;;;;;;;;14.08;75.63;102000.44;1261166;23;654;-71
2022/11/30 02:59:36;;;;;;;;;;;;;;;14.09;75.40;102002.16;1261374;23;657;-71
2022/11/30 03:00:26;;;;;;;;;;;;;;;14.11;75.09;101999.38;1261594;23;650;-71
2022/11/30 03:01:17;;;;;;;;;;;;;;;14.11;75.53;101997.56;1261330;23;661;-71
2022/11/30 03:02:07;;;;;;;;;;;;;;;14.10;75.13;101994.97;1261447;23;649;-71
2022/11/30 03:02:58;;;;;;;;;;;;;;;14.08;75.65;102003.13;1261388;23;654;-71
2022/11/30 03:03:48;;;;;;;;;;;;;;;14.07;75.22;102001.38;1261416;23;610;-71
2022/11/30 03:04:39;;;;;;;;;;;;;;;14.08;75.80;102016.53;1261317;23;673;-71
2022/11/30 03:05:29;;;;;;;;;;;;;;;14.08;75.10;102005.78;1261326;23;669;-71
2022/11/30 03:06:19;;;;;;;;;;;;;;;14.10;74.99;102003.88;1261454;23;606;-71
2022/11/30 03:07:10;;;;;;;;;;;;;;;14.09;75.05;102006.66;1262019;23;633;-71
2022/11/30 03:08:00;;;;;;;;;;;;;;;14.13;74.96;102011.75;1262296;23;649;-71
2022/11/30 03:08:51;;;;;;;;;;;;;;;14.14;75.16;102007.25;1261292;23;626;-71
2022/11/30 03:09:41;;;;;;;;;;;;;;;14.12;74.92;102012.69;1261370;23;649;-71
2022/11/30 03:10:31;;;;;;;;;;;;;;;14.12;75.39;102012.69;1261347;23;618;-71
2022/11/30 03:11:22;;;;;;;;;;;;;;;14.14;75.16;102016.16;1261320;23;669;-72
2022/11/30 03:12:12;;;;;;;;;;;;;;;14.14;74.93;102013.47;1262305;23;649;-72
2022/11/30 03:13:03;;;;;;;;;;;;;;;14.14;75.23;102013.47;1262057;23;617;-72
2022/11/30 03:13:53;;;;;;;;;;;;;;;14.15;75.10;102012.50;1261337;23;618;-72
2022/11/30 03:14:44;;;;;;;;;;;;;;;14.15;75.25;102015.16;1261358;23;622;-72
2022/11/30 03:15:34;;;;;;;;;;;;;;;14.15;74.84;102017.03;1261462;23;662;-72
2022/11/30 03:16:24;;;;;;;;;;;;;;;14.12;74.88;102020.75;1261296;23;1944;-71
2022/11/30 03:17:15;;;;;;;;;;;;;;;14.12;75.32;102019.88;1261211;23;750;-72
2022/11/30 03:18:05;;;;;;;;;;;;;;;14.13;74.84;102013.56;1262323;23;656;-71
2022/11/30 03:18:56;;;;;;;;;;;;;;;14.09;75.54;102023.59;1260547;23;766;-72
2022/11/30 03:19:46;;;;;;;;;;;;;;;14.09;75.46;102020.94;1261376;23;654;-72
2022/11/30 03:20:37;;;;;;;;;;;;;;;14.10;75.33;102022.66;1261367;23;669;-72
2022/11/30 03:21:27;;;;;;;;;;;;;;;14.10;75.35;102025.34;1261168;23;638;-71
2022/11/30 03:22:18;;;;;;;;;;;;;;;14.11;75.00;102010.97;1261308;23;626;-72
2022/11/30 03:23:08;;;;;;;;;;;;;;;14.13;74.86;102030.50;1262418;23;622;-72
2022/11/30 03:23:59;;;;;;;;;;;;;;;14.12;74.91;102028.78;1261544;23;626;-72
2022/11/30 03:24:49;;;;;;;;;;;;;;;14.09;75.37;102028.09;1261287;23;642;-72
2022/11/30 03:25:40;;;;;;;;;;;;;;;14.09;74.99;102028.09;1261344;23;673;-71
2022/11/30 03:26:30;;;;;;;;;;;;;;;14.11;75.06;102023.50;1256840;23;680;-71
2022/11/30 03:27:21;;;;;;;;;;;;;;;14.09;74.87;102033.47;1255102;23;650;-72
2022/11/30 03:28:12;;;;;;;;;;;;;;;14.10;75.09;102027.16;1261283;23;689;-72
2022/11/30 03:29:02;;;;;;;;;;;;;;;14.12;74.85;102030.59;1261224;23;732;-72
2022/11/30 03:29:52;;;;;;;;;;;;;;;14.14;75.24;102034.06;1261190;23;676;-71
2022/11/30 03:30:43;;;;;;;;;;;;;;;14.12;75.18;102033.28;1261328;23;622;-72
2022/11/30 03:31:33;;;;;;;;;;;;;;;14.09;74.81;102031.66;1261377;23;654;-71
2022/11/30 03:32:24;;;;;;;;;;;;;;;14.08;75.07;102032.59;1261399;23;649;-71
2022/11/30 03:33:14;;;;;;;;;;;;;;;14.10;75.24;102029.84;1260760;23;662;-72
2022/11/30 03:34:05;;;;;;;;;;;;;;;14.09;75.49;102034.31;1261317;23;611;-71
2022/11/30 03:34:55;;;;;;;;;;;;;;;14.08;74.72;102029.91;1261294;23;646;-71
2022/11/30 03:35:46;;;;;;;;;;;;;;;14.10;75.18;102030.69;1262179;23;638;-71
2022/11/30 03:36:36;;;;;;;;;;;;;;;14.11;74.76;102035.09;1262139;23;1893;-71
2022/11/30 03:37:27;;;;;;;;;;;;;;;14.10;74.82;102030.69;1261291;23;622;-71
2022/11/30 03:38:17;;;;;;;;;;;;;;;14.11;74.71;102027.06;1261422;23;619;-71
2022/11/30 03:39:08;;;;;;;;;;;;;;;14.13;75.16;102035.88;1261221;23;610;-72
2022/11/30 03:39:58;;;;;;;;;;;;;;;14.13;75.01;102029.66;1261357;23;618;-71
2022/11/30 03:40:49;;;;;;;;;;;;;;;14.14;74.99;102032.25;1261476;23;661;-71
2022/11/30 03:41:39;;;;;;;;;;;;;;;14.13;75.02;102030.50;1261305;23;752;-71
2022/11/30 03:42:30;;;;;;;;;;;;;;;14.11;74.65;102024.38;1262180;23;610;-71
2022/11/30 03:43:20;;;;;;;;;;;;;;;14.13;75.07;102030.50;1261210;23;607;-71
2022/11/30 03:44:10;;;;;;;;;;;;;;;14.10;75.45;102025.34;1261312;23;618;-71
2022/11/30 03:45:01;;;;;;;;;;;;;;;14.08;74.96;102024.56;1261273;23;665;-71
2022/11/30 03:45:51;;;;;;;;;;;;;;;14.07;74.85;102025.50;1262039;23;883;-71
2022/11/30 03:46:42;;;;;;;;;;;;;;;14.07;75.36;102021.97;1261250;23;642;-70
2022/11/30 03:47:32;;;;;;;;;;;;;;;14.04;74.99;102031.06;1260805;23;662;-72
2022/11/30 03:48:23;;;;;;;;;;;;;;;14.04;74.91;102025.69;1261156;23;676;-72
2022/11/30 03:49:13;;;;;;;;;;;;;;;14.05;75.07;102022.06;1261264;23;622;-72
2022/11/30 03:50:03;;;;;;;;;;;;;;;14.06;74.88;102021.09;1261186;23;623;-72
2022/11/30 03:50:54;;;;;;;;;;;;;;;14.05;75.25;102019.38;1261274;23;614;-72
2022/11/30 03:51:44;;;;;;;;;;;;;;;14.07;75.29;102022.84;1262194;23;656;-72
2022/11/30 03:52:35;;;;;;;;;;;;;;;14.07;75.09;102020.16;1256704;23;685;-71
2022/11/30 03:53:25;;;;;;;;;;;;;;;14.07;75.21;102017.47;1254966;23;642;-72
2022/11/30 03:54:16;;;;;;;;;;;;;;;14.09;74.65;102020.94;1260987;23;638;-72
2022/11/30 03:55:06;;;;;;;;;;;;;;;14.10;75.12;102019.97;1260893;23;625;-72
2022/11/30 03:55:56;;;;;;;;;;;;;;;14.09;74.81;102020.94;1261911;23;649;-72
2022/11/30 03:56:47;;;;;;;;;;;;;;;14.08;75.12;102021.88;1261248;23;622;-72
2022/11/30 03:57:37;;;;;;;;;;;;;;;14.07;74.89;102019.28;1261272;23;653;-71
2022/11/30 03:58:28;;;;;;;;;;;;;;;14.07;75.11;102021.97;1261346;23;672;-72
2022/11/30 03:59:18;;;;;;;;;;;;;;;14.04;75.02;102020.34;1262251;23;633;-72
2022/11/30 04:00:08;;;;;;;;;;;;;;;14.06;75.02;102023.78;1261293;23;681;-71
2022/11/30 04:00:59;;;;;;;;;;;;;;;14.07;75.42;102025.50;1261932;23;664;-71
2022/11/30 04:01:49;;;;;;;;;;;;;;;14.07;75.35;102019.28;1261271;23;617;-72
2022/11/30 04:02:40;;;;;;;;;;;;;;;14.05;75.00;102027.41;1261962;23;673;-71
2022/11/30 04:03:30;;;;;;;;;;;;;;;14.03;75.04;102021.28;1261302;23;654;-72
2022/11/30 04:04:21;;;;;;;;;;;;;;;14.04;75.10;102030.19;1261325;23;693;-72
2022/11/30 04:05:12;;;;;;;;;;;;;;;14.04;75.62;102033.75;1261260;23;673;-72
2022/11/30 04:06:02;;;;;;;;;;;;;;;14.04;75.44;102025.69;1261141;23;695;-72
2022/11/30 04:06:53;;;;;;;;;;;;;;;14.05;75.53;102026.56;1261282;23;630;-71
2022/11/30 04:07:43;;;;;;;;;;;;;;;14.05;75.26;102027.41;1261213;23;668;-72
2022/11/30 04:08:33;;;;;;;;;;;;;;;14.07;75.14;102028.19;1261269;23;673;-71
2022/11/30 04:09:24;;;;;;;;;;;;;;;14.08;74.65;102032.59;1261082;23;658;-72
2022/11/30 04:10:14;;;;;;;;;;;;;;;14.05;74.90;102030.09;1261369;23;625;-72
2022/11/30 04:11:05;;;;;;;;;;;;;;;14.03;75.09;102032.00;1261255;23;673;-72
2022/11/30 04:11:55;;;;;;;;;;;;;;;14.02;75.66;102030.28;1261160;23;657;-72
2022/11/30 04:12:45;;;;;;;;;;;;;;;14.06;74.98;102026.47;1256679;23;640;-71
2022/11/30 04:13:36;;;;;;;;;;;;;;;14.06;75.54;102031.81;1254840;23;678;-72
2022/11/30 04:14:26;;;;;;;;;;;;;;;14.03;75.05;102032.00;1261013;23;753;-72
2022/11/30 04:15:17;;;;;;;;;;;;;;;14.04;75.44;102031.06;1261207;23;650;-72
2022/11/30 04:16:07;;;;;;;;;;;;;;;14.06;75.57;102033.66;1261286;23;708;-72
2022/11/30 04:16:58;;;;;;;;;;;;;;;14.05;75.41;102031.91;1260881;23;616;-72
2022/11/30 04:17:48;;;;;;;;;;;;;;;14.05;75.54;102035.47;1261345;23;666;-72
2022/11/30 04:18:38;;;;;;;;;;;;;;;14.05;75.51;102027.41;1262197;23;593;-72
2022/11/30 04:19:29;;;;;;;;;;;;;;;14.05;75.24;102038.16;1261204;23;661;-72
2022/11/30 04:20:19;;;;;;;;;;;;;;;14.08;75.08;102037.09;1260984;23;661;-71
2022/11/30 04:21:10;;;;;;;;;;;;;;;14.07;74.90;102035.38;1262098;23;634;-71
2022/11/30 04:22:00;;;;;;;;;;;;;;;14.06;75.30;102034.50;1261033;23;630;-71
2022/11/30 04:22:50;;;;;;;;;;;;;;;14.08;74.87;102032.59;1261276;23;653;-71
2022/11/30 04:23:41;;;;;;;;;;;;;;;14.08;74.92;102027.25;1261186;23;685;-71
2022/11/30 04:24:31;;;;;;;;;;;;;;;14.08;74.87;102032.59;1261288;23;669;-71
2022/11/30 04:25:22;;;;;;;;;;;;;;;14.07;74.97;102030.00;1261275;23;696;-71
2022/11/30 04:26:12;;;;;;;;;;;;;;;14.06;74.77;102039.00;1262073;23;633;-71